LFOT/TUF METAR and TAF weather

Enter ICAO airport designator
Station Type Date Time Source
LFOT METAR 2023/01/30 11:30 UTC NOAA

LFOT 301130Z AUTO 26008KT 9999 3500 BKN011 BKN026 OVC035 05/04 Q1029 TEMPO 2000 -DZ BKN006


Station Type Date Time Source
LFOT Decoded METAR 2023/01/30 11:30 UTC NOAA

Tours, France (LFOT) 47-27N 000-43E 112M
Jan 30, 2023 - 06:30 AM EST / 2023.01.30 1130 UTC
Wind: from the W (260 degrees) at 9 MPH (8 KT):0
Visibility: greater than 7 mile(s):0
Sky conditions: overcast
Temperature: 41 F (5 C)
Dew Point: 39 F (4 C)
Relative Humidity: 93%
Pressure (altimeter): 30.39 in. Hg (1029 hPa)
ob: LFOT 301130Z AUTO 26008KT 9999 3500 BKN011 BKN026 OVC035 05/04 Q1029 TEMPO 2000 -DZ BKN006
cycle: 11

Station Type Date Time Source
LFOT TAF 2023/01/30 12:42 UTC NOAA

TAF LFOT 301100Z 3012/3112 23010KT 9999 BKN016
TEMPO 3012/3021 4000 -RA BKN008 PROB40
TEMPO 3012/3021 2500 -DZ BKN006
TEMPO 3021/3106 2000 BR OVC004 PROB40
TEMPO 3021/3110 0600 FG VV///

Example: see airport list